Time;durP1;ratioP1;P1;durP2;ratioP2;P2;SDS_P1;SDS_P2;PMS_P1;PMS_P2;Temp;Humidity;BMP_temperature;BMP_pressure;BME280_temperature;BME280_humidity;BME280_pressure;Samples;Min_cycle;Max_cycle;Signal;HPM_P1;HPM_P2
2022/11/26 00:00:28;;;;;;;60.17;29.58;;;1.50;99.90;;;;;;5090877;28;20024;-76
2022/11/26 00:02:53;;;;;;;;;;;1.50;99.90;;;;;;5089148;28;20522;-76
2022/11/26 00:05:20;;;;;;;66.20;31.50;;;1.40;99.90;;;;;;5090143;28;20002;-76
2022/11/26 00:07:59;;;;;;;72.72;32.15;;;1.40;99.90;;;;;;5090399;28;20060;-76
2022/11/26 00:10:27;;;;;;;84.82;42.33;;;1.40;99.90;;;;;;5090528;28;20433;-76
2022/11/26 00:12:53;;;;;;;98.05;47.80;;;1.20;99.90;;;;;;5088809;28;20028;-77
2022/11/26 00:15:37;;;;;;;;;;;1.20;99.90;;;;;;5089741;28;20111;-77
2022/11/26 00:18:02;;;;;;;119.07;52.60;;;1.20;99.90;;;;;;5090292;28;19912;-76
2022/11/26 00:20:29;;;;;;;;;;;1.10;99.90;;;;;;5089333;28;20031;-77
2022/11/26 00:23:03;;;;;;;107.50;45.15;;;1.10;99.90;;;;;;5088972;28;20405;-78
2022/11/26 00:25:42;;;;;;;97.25;45.35;;;1.00;99.90;;;;;;5090531;28;20028;-76
2022/11/26 00:28:31;;;;;;;94.05;45.20;;;1.00;99.90;;;;;;5089194;28;20047;-76
2022/11/26 00:31:00;;;;;;;84.80;42.50;;;1.00;99.90;;;;;;5090560;28;20457;-76
2022/11/26 00:33:28;;;;;;;93.38;42.72;;;1.00;99.90;;;;;;5088989;28;20073;-76
2022/11/26 00:36:00;;;;;;;96.22;43.50;;;1.10;99.90;;;;;;5090453;28;20519;-77
2022/11/26 00:38:26;;;;;;;88.68;40.85;;;1.10;99.90;;;;;;5090828;28;20111;-76
2022/11/26 00:40:52;;;;;;;94.15;43.58;;;1.20;99.90;;;;;;5089159;28;20488;-76
2022/11/26 00:43:17;;;;;;;;;;;1.20;99.90;;;;;;5089376;28;20036;-75
2022/11/26 00:45:46;;;;;;;82.03;38.28;;;1.30;99.90;;;;;;5089031;28;19934;-75
2022/11/26 00:48:13;;;;;;;74.55;34.67;;;1.30;99.90;;;;;;5091142;28;20020;-78
2022/11/26 00:50:48;;;;;;;68.88;32.10;;;1.30;99.90;;;;;;5090327;28;20084;-77
2022/11/26 00:53:16;;;;;;;68.55;32.75;;;1.20;99.90;;;;;;5088523;28;20032;-78
2022/11/26 00:55:47;;;;;;;80.32;36.00;;;1.20;99.90;;;;;;5086816;28;20020;-77
2022/11/26 00:58:39;;;;;;;68.35;32.70;;;1.10;99.90;;;;;;5088142;28;20066;-77
2022/11/26 01:01:05;;;;;;;66.25;32.83;;;1.10;99.90;;;;;;5086207;28;20040;-77
2022/11/26 01:03:30;;;;;;;;;;;1.10;99.90;;;;;;5087866;28;20050;-77
2022/11/26 01:05:57;;;;;;;67.15;31.67;;;1.10;99.90;;;;;;5085972;28;20373;-77
2022/11/26 01:08:23;;;;;;;65.78;30.10;;;1.10;99.90;;;;;;5086574;28;20450;-77
2022/11/26 01:10:48;;;;;;;;;;;1.10;99.90;;;;;;5087598;28;20032;-77
2022/11/26 01:13:14;;;;;;;61.60;29.17;;;1.10;99.90;;;;;;5087364;28;20266;-77
2022/11/26 01:15:40;;;;;;;;;;;1.10;99.90;;;;;;5087133;28;20028;-77
2022/11/26 01:18:18;;;;;;;59.20;27.35;;;1.20;99.90;;;;;;5085770;28;19915;-77
2022/11/26 01:20:44;;;;;;;74.63;31.70;;;1.20;99.90;;;;;;5087743;28;20024;-77
2022/11/26 01:23:12;;;;;;;66.40;30.63;;;1.20;99.90;;;;;;5087472;28;20031;-77
2022/11/26 01:25:39;;;;;;;67.75;33.53;;;1.20;99.90;;;;;;5087031;28;20047;-77
2022/11/26 01:28:10;;;;;;;70.95;32.55;;;1.20;99.90;;;;;;5088104;28;20480;-77
2022/11/26 01:30:36;;;;;;;72.90;34.00;;;1.20;99.90;;;;;;5086345;28;20139;-76
2022/11/26 01:33:01;;;;;;;;;;;1.20;99.90;;;;;;5086644;28;20091;-77
2022/11/26 01:35:27;;;;;;;65.55;29.20;;;1.10;99.90;;;;;;5086864;28;19907;-77
2022/11/26 01:37:53;;;;;;;;;;;1.10;99.90;;;;;;5088315;28;20404;-78
2022/11/26 01:40:24;;;;;;;87.97;44.10;;;1.10;99.90;;;;;;5086548;28;19904;-78
2022/11/26 01:42:54;;;;;;;74.78;37.25;;;1.00;99.90;;;;;;5086149;28;20051;-77
2022/11/26 01:45:22;;;;;;;80.35;36.78;;;1.00;99.90;;;;;;5086215;28;20043;-76
2022/11/26 01:47:48;;;;;;;75.72;33.50;;;0.90;99.90;;;;;;5085654;28;20032;-76
2022/11/26 01:50:29;;;;;;;70.82;32.42;;;0.90;99.90;;;;;;5087160;28;20028;-77
2022/11/26 01:53:13;;;;;;;62.15;28.33;;;0.80;99.90;;;;;;5086317;28;20123;-77
2022/11/26 01:56:02;;;;;;;55.40;26.92;;;0.80;99.90;;;;;;5086772;28;20039;-76
2022/11/26 01:58:36;;;;;;;59.67;25.98;;;0.90;99.90;;;;;;5087278;28;20028;-76
2022/11/26 02:01:05;;;;;;;57.38;26.38;;;0.90;99.90;;;;;;5086477;28;20036;-77
2022/11/26 02:03:37;;;;;;;70.90;28.75;;;0.90;99.90;;;;;;5086550;28;20039;-77
2022/11/26 02:06:07;;;;;;;60.25;27.88;;;0.80;99.90;;;;;;5088032;28;20189;-77
2022/11/26 02:08:33;;;;;;;58.65;26.10;;;0.80;99.90;;;;;;5087312;28;20488;-77
2022/11/26 02:11:16;;;;;;;50.53;24.63;;;0.80;99.90;;;;;;5088489;28;20036;-77
2022/11/26 02:13:42;;;;;;;43.90;23.02;;;0.80;99.90;;;;;;5086994;28;20036;-77
2022/11/26 02:16:28;;;;;;;51.70;25.58;;;0.80;99.90;;;;;;5087633;28;20024;-77
2022/11/26 02:19:31;;;;;;;54.00;27.25;;;0.70;99.90;;;;;;5090357;28;20035;-77
2022/11/26 02:22:32;;;;;;;61.53;27.48;;;0.60;99.90;;;;;;5092036;28;20024;-77
2022/11/26 02:25:13;;;;;;;62.72;26.88;;;0.60;99.90;;;;;;5090470;28;20061;-77
2022/11/26 02:28:05;;;;;;;55.72;24.38;;;0.60;99.90;;;;;;5090871;28;20507;-76
2022/11/26 02:30:35;;;;;;;63.90;27.90;;;0.60;99.90;;;;;;5092550;28;20682;-77
2022/11/26 02:33:08;;;;;;;75.97;33.63;;;0.60;99.90;;;;;;5091738;28;20024;-77
2022/11/26 02:35:43;;;;;;;63.58;30.15;;;0.60;99.90;;;;;;5091154;28;20032;-77
2022/11/26 02:38:21;;;;;;;60.72;27.30;;;0.70;99.90;;;;;;5090669;28;20064;-78
2022/11/26 02:40:47;;;;;;;55.80;26.88;;;0.80;99.90;;;;;;5090698;28;20032;-76
2022/11/26 02:43:15;;;;;;;60.75;26.90;;;0.90;99.90;;;;;;5090839;28;20122;-75
2022/11/26 02:45:48;;;;;;;54.63;25.75;;;0.90;99.90;;;;;;5090819;28;20024;-77
2022/11/26 02:48:27;;;;;;;54.67;25.02;;;1.00;99.90;;;;;;5090638;28;20056;-76
2022/11/26 02:51:00;;;;;;;58.95;26.08;;;1.00;99.90;;;;;;5090931;28;20064;-77
2022/11/26 02:53:28;;;;;;;56.65;27.10;;;1.00;99.90;;;;;;5090998;28;20028;-77
2022/11/26 02:56:11;;;;;;;55.05;25.85;;;1.00;99.90;;;;;;5089317;28;20024;-78
2022/11/26 02:58:37;;;;;;;57.53;27.50;;;1.10;99.90;;;;;;5079743;28;20032;-78
2022/11/26 03:01:08;;;;;;;62.47;28.70;;;1.10;99.90;;;;;;5069795;28;20034;-77
2022/11/26 03:03:40;;;;;;;54.45;27.15;;;1.20;99.90;;;;;;5069497;28;20035;-77
2022/11/26 03:06:09;;;;;;;55.90;26.02;;;1.20;99.90;;;;;;5069619;28;20027;-77
2022/11/26 03:08:36;;;;;;;52.47;26.85;;;1.20;99.90;;;;;;5070442;28;20081;-78
2022/11/26 03:11:02;;;;;;;52.55;27.20;;;1.20;99.90;;;;;;5072813;28;20103;-77
2022/11/26 03:13:28;;;;;;;59.78;28.73;;;1.20;99.90;;;;;;5070127;28;20342;-77
2022/11/26 03:15:53;;;;;;;;;;;1.20;99.90;;;;;;5067880;28;20358;-78
2022/11/26 03:18:19;;;;;;;59.10;28.50;;;1.30;99.90;;;;;;5069011;28;20370;-77
2022/11/26 03:20:45;;;;;;;;;;;1.30;99.90;;;;;;5085422;28;20445;-77
2022/11/26 03:23:10;;;;;;;63.83;29.73;;;1.30;99.90;;;;;;5084257;28;19908;-77
2022/11/26 03:25:36;;;;;;;;;;;1.30;99.90;;;;;;5085969;28;20036;-77
2022/11/26 03:28:02;;;;;;;65.65;31.83;;;1.30;99.90;;;;;;5085509;28;19908;-77
2022/11/26 03:30:27;;;;;;;;;;;1.30;99.90;;;;;;5084448;28;20024;-76
2022/11/26 03:32:53;;;;;;;57.10;29.33;;;1.30;99.90;;;;;;5084124;28;19908;-77
2022/11/26 03:35:19;;;;;;;;;;;1.40;99.90;;;;;;5085091;28;20032;-77
2022/11/26 03:37:44;;;;;;;59.67;29.90;;;1.40;99.90;;;;;;5084185;28;19908;-77
2022/11/26 03:40:10;;;;;;;;;;;1.40;99.90;;;;;;5084109;28;20031;-77
2022/11/26 03:42:36;;;;;;;57.63;29.20;;;1.40;99.90;;;;;;5083968;28;19920;-77
2022/11/26 03:45:01;;;;;;;;;;;1.50;99.90;;;;;;5085486;28;20040;-77
2022/11/26 03:47:27;;;;;;;55.17;29.08;;;1.50;99.90;;;;;;5084733;28;19911;-78
2022/11/26 03:49:53;;;;;;;;;;;1.60;99.90;;;;;;5085570;28;20028;-77
2022/11/26 03:52:19;;;;;;;63.97;30.38;;;1.60;99.90;;;;;;5086739;28;19998;-77
2022/11/26 03:54:44;;;;;;;71.53;33.97;;;1.60;99.90;;;;;;5085346;28;20028;-77
2022/11/26 03:57:10;;;;;;;;;;;1.60;99.90;;;;;;5086886;28;20085;-76
2022/11/26 03:59:36;;;;;;;66.05;30.58;;;1.60;99.90;;;;;;5086407;28;20300;-77
2022/11/26 04:02:01;;;;;;;;;;;1.60;99.90;;;;;;5085312;28;20392;-77
2022/11/26 04:04:27;;;;;;;70.50;31.25;;;1.60;99.90;;;;;;5084594;28;19923;-77
2022/11/26 04:06:52;;;;;;;;;;;1.70;99.90;;;;;;5087660;28;20035;-77
2022/11/26 04:09:18;;;;;;;73.50;34.08;;;1.60;99.90;;;;;;5084860;28;19944;-77
2022/11/26 04:11:44;;;;;;;;;;;1.60;99.90;;;;;;5087059;28;20031;-77
2022/11/26 04:14:09;;;;;;;68.60;35.10;;;1.50;99.90;;;;;;5084634;28;19957;-78
2022/11/26 04:16:35;;;;;;;;;;;1.60;99.90;;;;;;5086897;28;20024;-78
2022/11/26 04:19:00;;;;;;;66.70;32.13;;;1.50;99.90;;;;;;5084859;28;19908;-77
2022/11/26 04:21:26;;;;;;;;;;;1.50;99.90;;;;;;5085267;28;20028;-78
2022/11/26 04:23:52;;;;;;;76.10;33.55;;;1.60;99.90;;;;;;5086948;28;20003;-77
2022/11/26 04:26:17;;;;;;;;;;;1.60;99.90;;;;;;5085294;28;20021;-76
2022/11/26 04:28:43;;;;;;;67.45;32.33;;;1.60;99.90;;;;;;5085207;28;20716;-77
2022/11/26 04:31:09;;;;;;;67.72;33.80;;;1.60;99.90;;;;;;5084204;28;20046;-77
2022/11/26 04:33:34;;;;;;;;;;;1.60;99.90;;;;;;5086848;28;20071;-77
2022/11/26 04:36:00;;;;;;;80.47;35.40;;;1.60;99.90;;;;;;5084871;28;19912;-76
2022/11/26 04:38:26;;;;;;;;;;;1.60;99.90;;;;;;5085414;28;20028;-77
2022/11/26 04:40:52;;;;;;;87.25;38.78;;;1.70;99.90;;;;;;5087131;28;19907;-77
2022/11/26 04:43:18;;;;;;;88.72;36.97;;;1.70;99.90;;;;;;5084501;28;20078;-77
2022/11/26 04:45:43;;;;;;;;;;;1.70;99.90;;;;;;5087637;28;20063;-77
2022/11/26 04:48:09;;;;;;;140.82;42.35;;;1.70;99.90;;;;;;5086389;28;19908;-77
2022/11/26 04:50:34;;;;;;;;;;;1.80;99.90;;;;;;5085349;28;20028;-76
2022/11/26 04:53:00;;;;;;;132.95;40.75;;;1.70;99.90;;;;;;5087186;28;19908;-78
2022/11/26 04:55:26;;;;;;;;;;;1.70;99.90;;;;;;5088027;28;20123;-76
2022/11/26 04:57:51;;;;;;;98.47;39.10;;;1.70;99.90;;;;;;5088820;28;20006;-77
2022/11/26 05:00:17;;;;;;;;;;;1.70;99.90;;;;;;5090079;28;20123;-77
2022/11/26 05:02:43;;;;;;;98.68;37.65;;;1.70;99.90;;;;;;5090171;28;20419;-77
2022/11/26 05:05:09;;;;;;;;;;;1.70;99.90;;;;;;5090557;28;20067;-77
2022/11/26 05:07:34;;;;;;;152.30;33.42;;;1.70;99.90;;;;;;5090573;28;19947;-77
2022/11/26 05:10:00;;;;;;;;;;;1.80;99.90;;;;;;5091246;28;20036;-78
2022/11/26 05:12:26;;;;;;;122.78;29.50;;;1.90;99.90;;;;;;5089281;28;19915;-77
2022/11/26 05:14:51;;;;;;;;;;;1.70;99.90;;;;;;5089095;28;20063;-78
2022/11/26 05:17:17;;;;;;;94.25;24.77;;;1.80;99.90;;;;;;5090565;28;20026;-77
2022/11/26 05:19:42;;;;;;;;;;;1.80;99.90;;;;;;5089675;28;20031;-78
2022/11/26 05:22:08;;;;;;;197.80;29.45;;;1.80;99.90;;;;;;5089215;28;20016;-78
2022/11/26 05:24:34;;;;;;;;;;;1.70;99.90;;;;;;5090405;28;20035;-77
2022/11/26 05:26:59;;;;;;;132.57;26.30;;;1.80;99.90;;;;;;5091459;28;20007;-77
2022/11/26 05:29:25;;;;;;;;;;;1.80;99.90;;;;;;5089551;28;20017;-78
2022/11/26 05:31:51;;;;;;;216.13;29.95;;;1.80;99.90;;;;;;5090354;28;19907;-76
2022/11/26 05:34:18;;;;;;;159.68;29.17;;;1.80;99.90;;;;;;5089543;28;20032;-77
2022/11/26 05:36:43;;;;;;;147.40;29.98;;;1.80;99.90;;;;;;5089426;28;20043;-77
2022/11/26 05:39:09;;;;;;;;;;;1.80;99.90;;;;;;5092966;28;20103;-77
2022/11/26 05:41:34;;;;;;;152.35;30.33;;;1.80;99.90;;;;;;5089466;28;19962;-76
2022/11/26 05:44:00;;;;;;;;;;;1.80;99.90;;;;;;5087288;28;20032;-77
2022/11/26 05:46:26;;;;;;;378.52;33.35;;;1.80;99.90;;;;;;5087079;28;19947;-77
2022/11/26 05:48:51;;;;;;;;;;;1.80;99.90;;;;;;5087021;28;20021;-77
2022/11/26 05:51:17;;;;;;;555.30;76.82;;;1.80;99.90;;;;;;5088251;28;19953;-77
2022/11/26 05:53:42;;;;;;;;;;;1.80;99.90;;;;;;5090480;28;20105;-77
2022/11/26 05:56:08;;;;;;;153.93;52.85;;;1.80;99.90;;;;;;5091364;28;19907;-77
2022/11/26 05:58:34;;;;;;;;;;;1.90;99.90;;;;;;5091916;28;20031;-77
2022/11/26 06:00:59;;;;;;;337.10;52.15;;;1.80;99.90;;;;;;5089811;28;19915;-77
2022/11/26 06:03:25;;;;;;;;;;;1.70;99.90;;;;;;5091426;28;20036;-76
2022/11/26 06:05:50;;;;;;;234.02;48.67;;;1.80;99.90;;;;;;5089942;28;19927;-76
2022/11/26 06:08:16;;;;;;;;;;;1.70;99.90;;;;;;5089707;28;20134;-76
2022/11/26 06:10:43;;;;;;;89.68;34.45;;;1.70;99.90;;;;;;5090395;28;19915;-77
2022/11/26 06:13:08;;;;;;;98.70;34.75;;;1.80;99.90;;;;;;5090446;28;20511;-77
2022/11/26 06:15:34;;;;;;;;;;;1.70;99.90;;;;;;5091264;28;20032;-76
2022/11/26 06:17:59;;;;;;;121.78;35.58;;;1.80;99.90;;;;;;5090582;28;19908;-77
2022/11/26 06:20:43;;;;;;;;;;;1.80;99.90;;;;;;5090498;28;20027;-75
2022/11/26 06:23:09;;;;;;;107.97;32.72;;;2.00;99.90;;;;;;5090388;28;19960;-76
2022/11/26 06:25:35;;;;;;;76.63;29.98;;;1.80;99.90;;;;;;5091261;28;20028;-77
2022/11/26 06:28:00;;;;;;;;;;;1.80;99.90;;;;;;5091221;28;20598;-76
2022/11/26 06:30:26;;;;;;;136.93;29.67;;;1.80;99.90;;;;;;5089074;28;20540;-75
2022/11/26 06:32:51;;;;;;;;;;;1.80;99.90;;;;;;5090260;28;20028;-76
2022/11/26 06:35:17;;;;;;;165.30;29.08;;;1.80;99.90;;;;;;5090947;28;19904;-76
2022/11/26 06:37:43;;;;;;;;;;;1.90;99.90;;;;;;5089982;28;20150;-76
2022/11/26 06:40:14;;;;;;;138.02;28.52;;;1.90;99.90;;;;;;5089594;28;19910;-76
2022/11/26 06:42:40;;;;;;;105.10;32.50;;;1.90;99.90;;;;;;5091029;28;20063;-76
2022/11/26 06:45:06;;;;;;;;;;;1.90;99.90;;;;;;5091382;28;20424;-76
2022/11/26 06:47:31;;;;;;;95.88;39.35;;;1.90;99.90;;;;;;5091081;28;19998;-76
2022/11/26 06:49:57;;;;;;;;;;;1.90;99.90;;;;;;5091932;28;20451;-76
2022/11/26 06:52:22;;;;;;;137.20;42.00;;;1.90;99.90;;;;;;5092375;28;19962;-76
2022/11/26 06:54:48;;;;;;;;;;;2.00;99.90;;;;;;5090478;28;20024;-77
2022/11/26 06:57:14;;;;;;;106.25;39.05;;;2.00;99.90;;;;;;5088908;28;19992;-76
2022/11/26 06:59:39;;;;;;;;;;;2.00;99.90;;;;;;5091798;28;20032;-76
2022/11/26 07:02:05;;;;;;;97.32;38.95;;;2.10;99.90;;;;;;5090225;28;20002;-75
2022/11/26 07:04:30;;;;;;;;;;;2.10;99.90;;;;;;5091397;28;20416;-77
2022/11/26 07:06:56;;;;;;;87.97;35.92;;;2.20;99.90;;;;;;5092097;28;19915;-76
2022/11/26 07:09:21;;;;;;;;;;;2.20;99.90;;;;;;5089449;28;20028;-74
2022/11/26 07:11:48;;;;;;;82.25;36.88;;;2.30;99.90;;;;;;5092824;28;19903;-75
2022/11/26 07:14:14;;;;;;;81.38;35.75;;;2.30;99.90;;;;;;5090503;28;20035;-76
2022/11/26 07:16:40;;;;;;;;;;;2.40;99.90;;;;;;5092099;28;20396;-76
2022/11/26 07:19:05;;;;;;;82.13;35.38;;;2.50;99.90;;;;;;5090722;28;20384;-76
2022/11/26 07:21:31;;;;;;;;;;;2.60;99.90;;;;;;5092443;28;20032;-76
2022/11/26 07:23:57;;;;;;;92.13;38.05;;;2.70;99.90;;;;;;5090565;28;20292;-76
2022/11/26 07:26:23;;;;;;;69.70;33.20;;;2.80;99.90;;;;;;5092324;28;20123;-76
2022/11/26 07:28:49;;;;;;;;;;;2.80;99.90;;;;;;5092987;28;20051;-76
2022/11/26 07:31:18;;;;;;;81.25;36.13;;;2.90;99.90;;;;;;5092356;28;20002;-75
2022/11/26 07:33:45;;;;;;;81.00;37.13;;;3.00;99.90;;;;;;5090716;28;20070;-76
2022/11/26 07:36:24;;;;;;;103.32;49.78;;;3.00;99.90;;;;;;5091262;28;20035;-76
2022/11/26 07:38:53;;;;;;;84.28;39.35;;;3.10;99.90;;;;;;5092348;28;20028;-76
2022/11/26 07:41:19;;;;;;;54.15;27.83;;;3.10;99.90;;;;;;5091659;28;20587;-75
2022/11/26 07:43:45;;;;;;;;;;;3.20;99.90;;;;;;5091914;28;20036;-75
2022/11/26 07:46:13;;;;;;;48.33;24.77;;;3.30;99.90;;;;;;5091744;28;20394;-76
2022/11/26 07:48:39;;;;;;;47.65;24.70;;;3.30;99.90;;;;;;5091190;28;20028;-75
2022/11/26 07:51:06;;;;;;;49.60;25.70;;;3.40;99.90;;;;;;5091799;28;20077;-74
2022/11/26 07:53:34;;;;;;;60.00;31.95;;;3.40;99.90;;;;;;5091582;28;20024;-76
2022/11/26 07:56:04;;;;;;;90.65;51.03;;;3.60;99.90;;;;;;5090027;28;20518;-76
2022/11/26 07:58:29;;;;;;;91.53;47.67;;;3.60;99.90;;;;;;5093421;28;20032;-76
2022/11/26 08:00:55;;;;;;;;;;;3.70;99.90;;;;;;5093924;28;20039;-76
2022/11/26 08:03:20;;;;;;;97.45;52.00;;;3.70;99.90;;;;;;5094410;28;19904;-75
2022/11/26 08:05:46;;;;;;;;;;;3.80;99.90;;;;;;5096300;28;20034;-75
2022/11/26 08:08:12;;;;;;;59.10;29.13;;;3.80;99.90;;;;;;5092390;28;19904;-76
2022/11/26 08:10:37;;;;;;;;;;;3.90;99.90;;;;;;5093145;28;20028;-76
2022/11/26 08:13:03;;;;;;;44.22;24.05;;;3.90;99.90;;;;;;5092231;28;20004;-75
2022/11/26 08:15:29;;;;;;;;;;;3.90;99.90;;;;;;5092036;28;20013;-76
2022/11/26 08:17:55;;;;;;;51.05;28.10;;;4.00;99.90;;;;;;5091939;28;19908;-75
2022/11/26 08:20:22;;;;;;;51.15;30.08;;;4.10;99.90;;;;;;5092140;28;20448;-75
2022/11/26 08:22:48;;;;;;;57.88;32.33;;;4.10;99.90;;;;;;5090589;28;20046;-75
2022/11/26 08:25:13;;;;;;;;;;;4.40;99.90;;;;;;5088794;28;20484;-75
2022/11/26 08:27:39;;;;;;;59.88;35.30;;;4.60;99.90;;;;;;5090210;28;19934;-76
2022/11/26 08:30:05;;;;;;;;;;;4.70;99.90;;;;;;5092846;28;20088;-75
2022/11/26 08:32:31;;;;;;;66.00;38.17;;;4.90;99.90;;;;;;5092084;28;19904;-76
2022/11/26 08:34:57;;;;;;;59.78;34.67;;;5.20;99.90;;;;;;5091115;28;20034;-75
2022/11/26 08:37:22;;;;;;;;;;;5.30;99.90;;;;;;5093622;28;20107;-76
2022/11/26 08:39:48;;;;;;;38.33;22.92;;;5.40;99.90;;;;;;5094028;28;20333;-75
2022/11/26 08:42:13;;;;;;;;;;;5.60;99.90;;;;;;5092093;28;20104;-76
2022/11/26 08:44:39;;;;;;;36.58;19.55;;;5.70;99.90;;;;;;5090639;28;19916;-75
2022/11/26 08:47:04;;;;;;;;;;;5.70;99.90;;;;;;5094526;28;20027;-76
2022/11/26 08:49:30;;;;;;;32.88;19.13;;;5.80;99.90;;;;;;5094561;28;20006;-75
2022/11/26 08:51:55;;;;;;;;;;;5.70;99.90;;;;;;5095613;28;20404;-75
2022/11/26 08:54:22;;;;;;;32.78;20.48;;;5.70;99.90;;;;;;5095709;28;19908;-76
2022/11/26 08:56:47;;;;;;;37.63;20.33;;;5.70;99.90;;;;;;5095593;28;20020;-75
2022/11/26 08:59:13;;;;;;;;;;;5.70;99.90;;;;;;5092219;28;20589;-75
2022/11/26 09:01:39;;;;;;;38.28;22.27;;;5.60;99.90;;;;;;5090396;28;20384;-75
2022/11/26 09:04:04;;;;;;;;;;;5.70;99.90;;;;;;5089596;28;20296;-75
2022/11/26 09:06:31;;;;;;;41.45;22.33;;;5.60;99.90;;;;;;5091012;28;19908;-75
2022/11/26 09:09:11;;;;;;;46.35;25.38;;;5.60;99.90;;;;;;5089750;28;20028;-75
2022/11/26 09:12:11;;;;;;;40.05;24.88;;;5.60;99.90;;;;;;5090350;28;20095;-75
2022/11/26 09:14:39;;;;;;;59.03;35.28;;;5.50;99.90;;;;;;5065013;28;20040;-76
2022/11/26 09:17:05;;;;;;;50.20;29.77;;;5.60;99.90;;;;;;5089730;28;20016;-76
2022/11/26 09:19:32;;;;;;;47.95;29.25;;;5.70;99.90;;;;;;5089030;28;20549;-76
2022/11/26 09:21:58;;;;;;;53.17;30.13;;;5.80;99.90;;;;;;5088071;28;20569;-76
2022/11/26 09:24:25;;;;;;;62.33;33.05;;;5.90;99.90;;;;;;5087140;28;20561;-76
2022/11/26 09:26:50;;;;;;;52.35;30.48;;;6.10;99.90;;;;;;5089652;28;20035;-76
2022/11/26 09:29:17;;;;;;;;;;;6.30;99.90;;;;;;5087185;28;20047;-76
2022/11/26 09:31:44;;;;;;;41.75;25.55;;;6.40;99.90;;;;;;5086166;28;19908;-76
2022/11/26 09:34:11;;;;;;;41.80;24.65;;;6.60;99.90;;;;;;5086283;28;20065;-77
2022/11/26 09:36:37;;;;;;;37.72;23.52;;;6.70;99.90;;;;;;5087330;28;20049;-76
2022/11/26 09:39:03;;;;;;;38.63;24.00;;;6.70;99.90;;;;;;5088917;28;20132;-76
2022/11/26 09:41:38;;;;;;;;;;;6.70;99.90;;;;;;5087686;28;20849;-74
2022/11/26 09:44:30;;;;;;;42.00;25.77;;;6.70;99.90;;;;;;5087552;28;20303;-76
2022/11/26 09:47:34;;;;;;;43.55;24.63;;;6.60;99.90;;;;;;5088075;28;20032;-75
2022/11/26 09:50:12;;;;;;;40.45;25.50;;;6.50;99.90;;;;;;5088761;28;20096;-76
2022/11/26 09:52:48;;;;;;;42.45;25.02;;;6.40;99.90;;;;;;5085976;28;20024;-76
2022/11/26 09:55:19;;;;;;;43.80;26.00;;;6.20;99.90;;;;;;5088706;28;20028;-76
2022/11/26 09:58:03;;;;;;;45.90;23.40;;;6.20;99.90;;;;;;5088932;28;20044;-77
2022/11/26 10:00:51;;;;;;;40.85;24.75;;;6.20;99.90;;;;;;5090466;28;20024;-76
2022/11/26 10:03:20;;;;;;;42.35;24.13;;;6.10;99.90;;;;;;5085837;28;20098;-76
2022/11/26 10:06:13;;;;;;;41.45;25.83;;;6.10;99.90;;;;;;5088424;28;20488;-76
2022/11/26 10:09:00;;;;;;;41.65;24.00;;;6.10;99.90;;;;;;5089362;28;20024;-76
2022/11/26 10:11:42;;;;;;;44.83;27.50;;;6.10;99.90;;;;;;5089082;28;20046;-76
2022/11/26 10:14:27;;;;;;;51.35;27.83;;;6.10;99.90;;;;;;5090072;28;20553;-76
2022/11/26 10:17:11;;;;;;;42.08;25.80;;;6.10;99.90;;;;;;5089137;28;20058;-76
2022/11/26 10:19:43;;;;;;;45.40;25.00;;;6.10;99.90;;;;;;5089615;28;20024;-75
2022/11/26 10:22:22;;;;;;;43.47;25.40;;;6.10;99.90;;;;;;5091589;28;20380;-77
2022/11/26 10:24:49;;;;;;;40.80;25.13;;;6.10;99.90;;;;;;5089579;28;20085;-76
2022/11/26 10:27:19;;;;;;;44.60;24.85;;;6.10;99.90;;;;;;5091619;28;20036;-77
2022/11/26 10:29:53;;;;;;;42.15;24.20;;;6.10;99.90;;;;;;5091103;28;20500;-76
2022/11/26 10:32:31;;;;;;;39.88;24.00;;;6.10;99.90;;;;;;5086443;28;20024;-75
2022/11/26 10:34:57;;;;;;;41.42;23.98;;;6.00;99.90;;;;;;5085624;28;20028;-75
2022/11/26 10:37:25;;;;;;;39.20;23.92;;;6.00;99.90;;;;;;5088295;28;20093;-75
2022/11/26 10:40:09;;;;;;;44.63;25.25;;;5.90;99.90;;;;;;5089882;28;20563;-76
2022/11/26 10:42:41;;;;;;;43.17;25.35;;;5.90;99.90;;;;;;5089579;28;20052;-75
2022/11/26 10:45:33;;;;;;;40.38;24.48;;;6.00;99.90;;;;;;5088440;28;20400;-76
2022/11/26 10:48:20;;;;;;;39.03;24.50;;;5.90;99.90;;;;;;5089204;28;20027;-76
2022/11/26 10:51:15;;;;;;;39.95;23.65;;;5.90;99.90;;;;;;5088944;28;20042;-76
2022/11/26 10:53:59;;;;;;;48.20;24.02;;;5.90;99.90;;;;;;5089287;28;20111;-75
2022/11/26 10:56:40;;;;;;;40.75;24.92;;;5.90;99.90;;;;;;5089687;28;20087;-76
2022/11/26 10:59:36;;;;;;;44.47;27.40;;;5.90;99.90;;;;;;5085623;28;20039;-75
2022/11/26 11:02:15;;;;;;;43.38;26.25;;;5.80;99.90;;;;;;5090474;28;20397;-77
2022/11/26 11:04:44;;;;;;;40.63;25.33;;;5.70;99.90;;;;;;5088553;28;20036;-76
2022/11/26 11:07:36;;;;;;;42.90;25.10;;;5.70;99.90;;;;;;5088246;28;20034;-76
2022/11/26 11:10:15;;;;;;;37.28;22.60;;;5.70;99.90;;;;;;5091273;28;20066;-76
2022/11/26 11:12:44;;;;;;;38.85;24.30;;;5.80;99.90;;;;;;5089839;28;20414;-77
2022/11/26 11:15:28;;;;;;;40.60;24.83;;;5.80;99.90;;;;;;5088115;28;20028;-77
2022/11/26 11:17:54;;;;;;;44.47;26.20;;;5.90;99.90;;;;;;5090003;28;20062;-77
2022/11/26 11:20:28;;;;;;;;;;;5.90;99.90;;;;;;5091039;28;20400;-77
2022/11/26 11:23:04;;;;;;;45.55;29.02;;;6.00;99.90;;;;;;5089264;28;19908;-76
2022/11/26 11:25:33;;;;;;;42.85;26.02;;;6.10;99.90;;;;;;5088122;28;20421;-77
2022/11/26 11:28:21;;;;;;;47.33;28.60;;;6.20;99.90;;;;;;5088936;28;20020;-76
2022/11/26 11:31:02;;;;;;;46.10;28.42;;;6.20;99.90;;;;;;5088983;28;20134;-76
2022/11/26 11:33:28;;;;;;;46.53;26.77;;;6.30;99.90;;;;;;5089063;28;20032;-77
2022/11/26 11:36:01;;;;;;;;;;;6.30;99.90;;;;;;5089377;28;20024;-77
2022/11/26 11:38:30;;;;;;;81.10;45.50;;;6.30;99.90;;;;;;5089204;28;19904;-76
2022/11/26 11:40:57;;;;;;;68.30;38.35;;;6.20;99.90;;;;;;5090570;28;20039;-77
2022/11/26 11:43:24;;;;;;;62.13;39.40;;;6.20;99.90;;;;;;5089362;28;20052;-76
2022/11/26 11:46:22;;;;;;;60.95;35.65;;;6.20;99.90;;;;;;5089002;28;20036;-76
2022/11/26 11:49:01;;;;;;;57.95;35.28;;;6.20;99.90;;;;;;5082613;28;20073;-75
2022/11/26 11:51:40;;;;;;;57.92;36.00;;;6.20;99.90;;;;;;5089782;28;20024;-76
2022/11/26 11:54:19;;;;;;;56.55;34.17;;;6.30;99.90;;;;;;5089572;28;20458;-76
2022/11/26 11:56:59;;;;;;;66.28;37.15;;;6.30;99.90;;;;;;5090755;28;20058;-76
2022/11/26 11:59:24;;;;;;;64.50;37.63;;;6.40;99.90;;;;;;5089394;28;20063;-77
2022/11/26 12:02:02;;;;;;;;;;;6.40;99.90;;;;;;5091243;28;20051;-77
2022/11/26 12:04:37;;;;;;;59.92;35.90;;;6.40;99.90;;;;;;5089075;28;19914;-77
2022/11/26 12:07:33;;;;;;;65.18;36.67;;;6.40;99.90;;;;;;5089298;28;20142;-77
2022/11/26 12:10:19;;;;;;;58.60;32.72;;;6.40;99.90;;;;;;5088586;28;20128;-76
2022/11/26 12:12:49;;;;;;;65.63;37.78;;;6.30;99.90;;;;;;5088370;28;20684;-77
2022/11/26 12:15:23;;;;;;;65.18;40.30;;;6.20;99.90;;;;;;5088685;28;20032;-77
2022/11/26 12:18:11;;;;;;;61.30;38.15;;;6.20;99.90;;;;;;5089357;28;20048;-77
2022/11/26 12:21:00;;;;;;;68.57;39.53;;;6.10;99.90;;;;;;5089351;28;20031;-76
2022/11/26 12:23:27;;;;;;;67.85;41.63;;;6.20;99.90;;;;;;5089807;28;20084;-77
2022/11/26 12:26:09;;;;;;;74.35;44.38;;;6.20;99.90;;;;;;5090706;28;20043;-76
2022/11/26 12:29:02;;;;;;;82.38;48.90;;;6.20;99.90;;;;;;5088776;28;20024;-77
2022/11/26 12:31:37;;;;;;;80.90;44.83;;;6.30;99.90;;;;;;5089443;28;20397;-77
2022/11/26 12:34:38;;;;;;;66.55;40.65;;;6.30;99.90;;;;;;5090604;28;20459;-76
2022/11/26 12:37:18;;;;;;;69.25;39.63;;;6.30;99.90;;;;;;5078448;28;20063;-76
2022/11/26 12:40:22;;;;;;;62.92;39.78;;;6.30;99.90;;;;;;5089004;28;20028;-76
2022/11/26 12:43:00;;;;;;;62.05;38.88;;;6.30;99.90;;;;;;5083062;28;20052;-76
2022/11/26 12:45:42;;;;;;;55.75;34.42;;;6.30;99.90;;;;;;5089125;28;20028;-76
2022/11/26 12:48:30;;;;;;;57.55;32.03;;;6.30;99.90;;;;;;5090165;28;20032;-77
2022/11/26 12:51:05;;;;;;;71.03;44.22;;;6.30;99.90;;;;;;5088335;28;20055;-76
2022/11/26 12:53:42;;;;;;;88.82;53.33;;;6.30;99.90;;;;;;5089009;28;20051;-77
2022/11/26 12:56:16;;;;;;;83.93;51.53;;;6.30;99.90;;;;;;5088833;28;20028;-77
2022/11/26 12:58:57;;;;;;;85.90;48.60;;;6.50;99.90;;;;;;5086942;28;20028;-77
2022/11/26 13:01:25;;;;;;;76.55;44.92;;;6.50;99.90;;;;;;5087835;28;20027;-77
2022/11/26 13:03:51;;;;;;;73.55;42.53;;;6.50;99.90;;;;;;5086676;28;20089;-77
2022/11/26 13:06:27;;;;;;;64.03;39.42;;;6.50;99.90;;;;;;5088416;28;20046;-76
2022/11/26 13:08:52;;;;;;;62.53;38.33;;;6.50;99.90;;;;;;5088281;28;20062;-76
2022/11/26 13:11:24;;;;;;;;;;;6.60;99.90;;;;;;5088931;28;20105;-77
2022/11/26 13:14:03;;;;;;;58.97;35.20;;;6.60;99.90;;;;;;5086516;28;20374;-77
2022/11/26 13:16:39;;;;;;;66.53;39.78;;;6.60;99.90;;;;;;5087907;28;20039;-76
2022/11/26 13:19:17;;;;;;;56.63;35.45;;;6.60;99.90;;;;;;5086447;28;20020;-77